createdAt,value
2022-09-28T00:01:30.344Z,27.80
2022-09-28T00:03:59.979Z,28.00
2022-09-28T00:06:31.081Z,28.00
2022-09-28T00:09:01.735Z,28.00
2022-09-28T00:11:31.138Z,23.25
2022-09-28T00:14:03.799Z,28.25
2022-09-28T00:16:38.627Z,27.25
2022-09-28T00:19:08.541Z,30.25
2022-09-28T00:21:39.658Z,29.75
2022-09-28T00:24:15.282Z,30.75
2022-09-28T00:26:54.036Z,32.00
2022-09-28T00:29:26.783Z,29.50
2022-09-28T00:32:00.299Z,29.25
2022-09-28T00:34:34.988Z,30.00
2022-09-28T00:37:05.855Z,28.25
2022-09-28T00:39:36.198Z,31.50
2022-09-28T00:42:06.833Z,28.25
2022-09-28T00:44:58.698Z,30.75
2022-09-28T00:47:46.833Z,32.25
2022-09-28T00:50:21.613Z,29.50
2022-09-28T00:52:56.217Z,33.50
2022-09-28T00:55:36.899Z,33.00
2022-09-28T00:58:09.272Z,28.25
2022-09-28T01:00:40.810Z,30.00
2022-09-28T01:03:11.389Z,30.50
2022-09-28T01:05:41.641Z,33.00
2022-09-28T01:08:11.301Z,30.25
2022-09-28T01:10:43.760Z,31.00
2022-09-28T01:13:15.911Z,32.50
2022-09-28T01:15:47.833Z,28.75
2022-09-28T01:18:22.543Z,35.50
2022-09-28T01:20:57.333Z,31.00
2022-09-28T01:23:44.369Z,31.00
2022-09-28T01:26:37.748Z,32.50
2022-09-28T01:29:26.355Z,28.00
2022-09-28T01:31:58.243Z,30.00
2022-09-28T01:34:30.364Z,32.50
2022-09-28T01:37:02.205Z,33.25
2022-09-28T01:39:36.931Z,32.00
2022-09-28T01:42:08.782Z,28.75
2022-09-28T01:44:40.800Z,30.00
2022-09-28T01:47:12.628Z,29.75
2022-09-28T01:49:44.513Z,31.75
2022-09-28T01:52:19.108Z,28.75
2022-09-28T01:54:59.629Z,32.50
2022-09-28T01:57:32.645Z,26.00
2022-09-28T02:00:11.125Z,31.75
2022-09-28T02:03:10.218Z,32.25
2022-09-28T02:05:42.322Z,31.75
2022-09-28T02:08:14.177Z,28.75
2022-09-28T02:11:04.312Z,32.00
2022-09-28T02:13:36.207Z,33.00
2022-09-28T02:16:08.225Z,31.75
2022-09-28T02:18:37.619Z,32.25
2022-09-28T02:21:09.479Z,31.25
2022-09-28T02:23:41.377Z,31.00
2022-09-28T02:26:13.251Z,33.00
2022-09-28T02:28:42.232Z,32.25
2022-09-28T02:31:11.344Z,31.00
2022-09-28T02:33:43.392Z,33.00
2022-09-28T02:36:13.016Z,32.75
2022-09-28T02:38:41.967Z,33.50
2022-09-28T02:41:16.858Z,34.25
2022-09-28T02:43:54.419Z,34.75
2022-09-28T02:46:34.988Z,33.50
2022-09-28T02:49:26.020Z,34.50
2022-09-28T02:52:28.021Z,31.00
2022-09-28T02:55:11.817Z,34.00
2022-09-28T02:57:55.680Z,32.00
2022-09-28T03:00:26.569Z,37.75
2022-09-28T03:03:22.909Z,40.50
2022-09-28T03:06:09.790Z,33.25
2022-09-28T03:08:41.679Z,40.50
2022-09-28T03:11:30.200Z,46.50
2022-09-28T03:14:00.811Z,36.50
2022-09-28T03:16:31.472Z,37.00
2022-09-28T03:19:00.562Z,33.00
2022-09-28T03:21:29.458Z,34.75
2022-09-28T03:23:58.441Z,31.25
2022-09-28T03:26:27.487Z,33.75
2022-09-28T03:28:56.500Z,33.50
2022-09-28T03:31:25.705Z,34.00
2022-09-28T03:33:54.937Z,34.00
2022-09-28T03:36:24.414Z,35.75
2022-09-28T03:38:56.605Z,34.00
2022-09-28T03:41:29.015Z,33.00
2022-09-28T03:43:58.033Z,33.00
2022-09-28T03:46:27.674Z,35.75
2022-09-28T03:48:59.504Z,33.00
2022-09-28T03:51:28.601Z,35.00
2022-09-28T03:53:57.587Z,36.00
2022-09-28T03:56:26.673Z,30.50
2022-09-28T03:58:55.844Z,34.50
2022-09-28T04:01:24.860Z,33.25
2022-09-28T04:03:58.819Z,37.50
2022-09-28T04:06:28.381Z,34.75
2022-09-28T04:08:57.420Z,35.75
2022-09-28T04:11:26.366Z,35.25
2022-09-28T04:13:55.417Z,34.00
2022-09-28T04:16:24.453Z,36.00
2022-09-28T04:18:53.551Z,33.75
2022-09-28T04:21:23.144Z,33.25
2022-09-28T04:23:53.406Z,37.25
2022-09-28T04:26:24.780Z,33.00
2022-09-28T04:29:12.063Z,34.00
2022-09-28T04:31:46.716Z,39.00
2022-09-28T04:34:18.348Z,34.00
2022-09-28T04:36:48.395Z,37.75
2022-09-28T04:39:19.679Z,44.25
2022-09-28T04:41:50.123Z,37.00
2022-09-28T04:44:19.107Z,39.50
2022-09-28T04:46:48.164Z,41.25
2022-09-28T04:49:17.587Z,39.50
2022-09-28T04:51:46.752Z,37.00
2022-09-28T04:54:15.707Z,36.00
2022-09-28T04:56:45.405Z,32.75
2022-09-28T04:59:17.258Z,32.25
2022-09-28T05:01:47.118Z,35.50
2022-09-28T05:04:16.792Z,31.50
2022-09-28T05:06:45.799Z,34.00
2022-09-28T05:09:14.964Z,31.00
2022-09-28T05:11:44.727Z,32.75
2022-09-28T05:14:13.857Z,32.00
2022-09-28T05:16:42.956Z,28.50
2022-09-28T05:19:12.756Z,33.50
2022-09-28T05:21:43.509Z,31.25
2022-09-28T05:24:14.038Z,33.25
2022-09-28T05:26:47.639Z,32.00
2022-09-28T05:29:16.768Z,31.75
2022-09-28T05:31:45.895Z,32.00
2022-09-28T05:34:14.939Z,28.25
2022-09-28T05:36:45.572Z,32.50
2022-09-28T05:39:14.738Z,33.25
2022-09-28T05:41:43.759Z,33.25
2022-09-28T05:44:12.965Z,33.75
2022-09-28T05:46:41.936Z,30.25
2022-09-28T05:49:10.973Z,34.75
2022-09-28T05:51:39.960Z,33.25
2022-09-28T05:54:09.612Z,33.25
2022-09-28T05:56:38.607Z,31.00
2022-09-28T05:59:07.758Z,33.75
2022-09-28T06:01:37.051Z,32.50
2022-09-28T06:04:06.254Z,33.25
2022-09-28T06:06:38.491Z,38.00
2022-09-28T06:09:07.598Z,40.75
2022-09-28T06:11:37.032Z,32.60
2022-09-28T06:14:06.058Z,32.00
2022-09-28T06:16:35.693Z,32.50
2022-09-28T06:19:05.944Z,32.00
2022-09-28T06:21:35.322Z,30.00
2022-09-28T06:24:05.903Z,33.50
2022-09-28T06:26:34.894Z,26.60
2022-09-28T06:29:04.102Z,31.00
2022-09-28T06:31:33.144Z,29.20
2022-09-28T06:34:02.441Z,31.40
2022-09-28T06:36:34.307Z,29.20
2022-09-28T06:39:03.271Z,28.40
2022-09-28T06:41:32.798Z,28.20
2022-09-28T06:44:03.474Z,30.80
2022-09-28T06:46:32.664Z,28.80
2022-09-28T06:49:02.051Z,25.40
2022-09-28T06:51:31.074Z,28.20
2022-09-28T06:54:00.149Z,28.60
2022-09-28T06:56:32.726Z,28.60
2022-09-28T06:58:59.878Z,30.00
2022-09-28T07:01:29.223Z,30.00
2022-09-28T07:03:58.305Z,30.40
2022-09-28T07:06:29.066Z,28.40
2022-09-28T07:09:07.342Z,30.40
2022-09-28T07:11:30.618Z,29.40
2022-09-28T07:13:59.693Z,31.80
2022-09-28T07:16:43.014Z,30.60
2022-09-28T07:18:59.418Z,28.80
2022-09-28T07:21:30.496Z,32.40
2022-09-28T07:24:00.191Z,31.40
2022-09-28T07:26:29.304Z,29.20
2022-09-28T07:28:58.371Z,28.40
2022-09-28T07:31:28.244Z,33.20
2022-09-28T07:33:58.810Z,31.80
2022-09-28T07:36:28.106Z,31.40
2022-09-28T07:38:57.112Z,31.20
2022-09-28T07:41:27.725Z,29.80
2022-09-28T07:43:56.988Z,26.60
2022-09-28T07:46:26.112Z,31.80
2022-09-28T07:48:55.228Z,32.60
2022-09-28T07:51:25.263Z,34.40
2022-09-28T07:53:56.317Z,31.80
2022-09-28T07:56:25.524Z,32.00
2022-09-28T07:58:54.500Z,30.40
2022-09-28T08:01:23.549Z,28.60
2022-09-28T08:03:54.126Z,32.40
2022-09-28T08:06:23.527Z,30.20
2022-09-28T08:08:54.150Z,27.20
2022-09-28T08:11:23.149Z,32.80
2022-09-28T08:13:53.845Z,30.20
2022-09-28T08:16:22.915Z,32.00
2022-09-28T08:18:52.050Z,31.60
2022-09-28T08:21:40.163Z,31.40
2022-09-28T08:24:09.184Z,29.60
2022-09-28T08:26:38.175Z,32.00
2022-09-28T08:29:08.458Z,34.25
2022-09-28T08:31:37.856Z,33.20
2022-09-28T08:34:06.977Z,30.25
2022-09-28T08:36:35.982Z,30.40
2022-09-28T08:39:05.333Z,31.80
2022-09-28T08:41:43.180Z,31.40
2022-09-28T08:44:15.482Z,32.40
2022-09-28T08:46:50.357Z,31.80
2022-09-28T08:49:38.965Z,33.00
2022-09-28T08:52:11.208Z,27.20
2022-09-28T08:54:58.608Z,25.40
2022-09-28T08:57:30.531Z,30.60
2022-09-28T09:00:02.355Z,25.40
2022-09-28T09:02:34.018Z,25.80
2022-09-28T09:05:06.433Z,28.00
2022-09-28T09:07:50.365Z,27.00
2022-09-28T09:10:44.756Z,23.40
2022-09-28T09:13:46.996Z,17.20
2022-09-28T09:16:24.872Z,22.20
2022-09-28T09:19:05.393Z,27.00
2022-09-28T09:21:56.204Z,35.00
2022-09-28T09:24:28.164Z,23.00
2022-09-28T09:27:09.190Z,11.20
2022-09-28T09:30:02.188Z,18.00
2022-09-28T09:33:10.841Z,18.00
2022-09-28T09:35:58.567Z,17.80
2022-09-28T09:38:36.042Z,13.20
2022-09-28T09:44:05.093Z,19.60
2022-09-28T09:46:40.003Z,17.00
2022-09-28T09:49:14.905Z,14.80
2022-09-28T09:52:06.633Z,15.20
2022-09-28T09:54:38.506Z,18.00
2022-09-28T09:57:13.073Z,13.40
2022-09-28T09:59:44.796Z,13.20
2022-09-28T10:02:31.841Z,17.60
2022-09-28T10:05:09.933Z,17.40
2022-09-28T10:07:47.813Z,16.80
2022-09-28T10:10:25.776Z,27.00
2022-09-28T10:12:55.436Z,18.60
2022-09-28T10:15:27.485Z,17.80
2022-09-28T10:17:59.165Z,20.40
2022-09-28T10:20:31.127Z,18.00
2022-09-28T10:23:02.465Z,18.20
2022-09-28T10:25:34.616Z,19.40
2022-09-28T10:28:07.371Z,18.00
2022-09-28T10:30:44.667Z,20.40
2022-09-28T10:33:31.887Z,25.80
2022-09-28T10:36:03.184Z,17.20
2022-09-28T10:38:34.077Z,17.80
2022-09-28T10:41:05.711Z,30.00
2022-09-28T10:43:40.474Z,38.40
2022-09-28T10:46:15.070Z,36.20
2022-09-28T10:49:05.222Z,43.25
2022-09-28T10:51:46.860Z,19.80
2022-09-28T10:54:18.798Z,16.40
2022-09-28T10:56:49.118Z,16.60
2022-09-28T10:59:36.408Z,17.80
2022-09-28T11:02:25.008Z,17.40
2022-09-28T11:04:57.081Z,18.00
2022-09-28T11:07:28.987Z,18.60
2022-09-28T11:09:59.185Z,17.40
2022-09-28T11:12:31.421Z,17.60
2022-09-28T11:15:06.183Z,17.40
2022-09-28T11:17:39.827Z,16.40
2022-09-28T11:20:33.248Z,17.20
2022-09-28T11:23:22.823Z,19.20
2022-09-28T11:26:01.068Z,22.40
2022-09-28T11:28:36.104Z,18.00
2022-09-28T11:31:06.457Z,22.00
2022-09-28T11:33:45.047Z,23.20
2022-09-28T11:36:25.681Z,19.80
2022-09-28T11:41:56.233Z,22.60
2022-09-28T11:44:44.919Z,24.80
2022-09-28T11:47:33.384Z,18.80
2022-09-28T11:50:11.035Z,21.00
2022-09-28T11:52:54.520Z,7.40
2022-09-28T11:55:38.357Z,17.20
2022-09-28T11:58:13.225Z,19.80
2022-09-28T12:00:45.128Z,19.20
2022-09-28T12:03:17.284Z,21.40
2022-09-28T12:05:54.993Z,20.40
2022-09-28T12:08:29.705Z,19.80
2022-09-28T12:11:04.537Z,20.20
2022-09-28T12:13:42.437Z,21.60
2022-09-28T12:16:38.818Z,17.40
2022-09-28T12:18:56.660Z,18.60
2022-09-28T12:21:45.650Z,18.20
2022-09-28T12:24:29.853Z,17.60
2022-09-28T12:27:18.508Z,16.40
2022-09-28T12:29:53.396Z,21.00
2022-09-28T12:32:37.711Z,20.00
2022-09-28T12:35:30.904Z,20.80
2022-09-28T12:38:09.277Z,18.40
2022-09-28T12:40:50.824Z,19.60
2022-09-28T12:43:46.752Z,14.40
2022-09-28T12:46:36.977Z,16.40
2022-09-28T12:51:45.293Z,18.00
2022-09-28T12:54:47.569Z,19.80
2022-09-28T12:57:29.085Z,17.25
2022-09-28T13:00:02.074Z,19.50
2022-09-28T13:02:37.140Z,16.80
2022-09-28T13:05:15.074Z,20.00
2022-09-28T13:08:02.976Z,17.00
2022-09-28T13:10:44.002Z,19.00
2022-09-28T13:13:21.983Z,17.20
2022-09-28T13:15:56.925Z,19.40
2022-09-28T13:18:40.921Z,15.20
2022-09-28T13:21:24.664Z,16.60
2022-09-28T13:24:08.760Z,18.40
2022-09-28T13:26:33.136Z,17.60
2022-09-28T13:29:08.959Z,16.00
2022-09-28T13:31:41.292Z,16.20
2022-09-28T13:34:13.214Z,17.20
2022-09-28T13:36:47.341Z,17.40
2022-09-28T13:39:36.783Z,19.20
2022-09-28T13:42:08.496Z,18.60
2022-09-28T13:45:09.450Z,20.20
2022-09-28T13:47:44.619Z,17.60
2022-09-28T13:50:16.505Z,17.80
2022-09-28T13:52:51.177Z,17.80
2022-09-28T13:55:36.381Z,19.20
2022-09-28T13:58:23.566Z,18.20
2022-09-28T14:00:55.970Z,17.60
2022-09-28T14:03:31.666Z,18.60
2022-09-28T14:06:11.183Z,16.80
2022-09-28T14:09:01.874Z,16.20
2022-09-28T14:11:40.674Z,17.80
2022-09-28T14:14:14.146Z,12.20
2022-09-28T14:16:43.931Z,18.60
2022-09-28T14:19:21.716Z,21.60
2022-09-28T14:22:14.529Z,16.00
2022-09-28T14:24:49.214Z,18.80
2022-09-28T14:27:54.054Z,21.20
2022-09-28T14:30:40.978Z,16.80
2022-09-28T14:33:29.522Z,19.80
2022-09-28T14:36:10.498Z,21.00
2022-09-28T14:39:09.392Z,19.60
2022-09-28T14:41:42.034Z,18.00
2022-09-28T14:44:12.865Z,20.80
2022-09-28T14:46:49.242Z,14.20
2022-09-28T14:49:25.217Z,17.40
2022-09-28T14:52:01.899Z,12.40
2022-09-28T14:54:48.601Z,19.20
2022-09-28T14:57:20.871Z,18.80
2022-09-28T14:59:50.188Z,19.20
2022-09-28T15:02:25.264Z,17.60
2022-09-28T15:04:57.130Z,19.20
2022-09-28T15:07:33.542Z,20.60
2022-09-28T15:10:03.021Z,20.20
2022-09-28T15:12:33.117Z,19.80
2022-09-28T15:15:08.650Z,19.20
2022-09-28T15:17:40.751Z,24.80
2022-09-28T15:20:30.885Z,21.00
2022-09-28T15:23:01.012Z,19.20
2022-09-28T15:25:32.767Z,19.00
2022-09-28T15:28:06.282Z,19.40
2022-09-28T15:30:37.621Z,24.60
2022-09-28T15:33:24.600Z,21.40
2022-09-28T15:36:02.257Z,22.00
2022-09-28T15:38:35.816Z,25.60
2022-09-28T15:41:06.831Z,25.00
2022-09-28T15:43:38.029Z,21.40
2022-09-28T15:46:10.713Z,24.00
2022-09-28T15:48:43.301Z,25.60
2022-09-28T15:51:13.221Z,21.60
2022-09-28T15:53:58.446Z,25.00
2022-09-28T15:56:28.629Z,25.80
2022-09-28T15:59:12.524Z,27.00
2022-09-28T16:01:43.714Z,22.80
2022-09-28T16:04:36.900Z,26.00
2022-09-28T16:07:20.950Z,25.20
2022-09-28T16:10:16.390Z,24.80
2022-09-28T16:12:50.995Z,24.80
2022-09-28T16:15:25.927Z,25.80
2022-09-28T16:17:57.979Z,30.80
2022-09-28T16:20:32.492Z,29.00
2022-09-28T16:23:06.077Z,20.60
2022-09-28T16:25:39.508Z,27.40
2022-09-28T16:28:10.828Z,32.40
2022-09-28T16:30:42.808Z,17.00
2022-09-28T16:33:33.277Z,28.40
2022-09-28T16:36:04.346Z,28.00
2022-09-28T16:38:33.357Z,31.00
2022-09-28T16:41:03.015Z,24.60
2022-09-28T16:43:36.619Z,27.60
2022-09-28T16:46:12.938Z,28.20
2022-09-28T16:48:50.914Z,28.40
2022-09-28T16:51:22.001Z,31.40
2022-09-28T16:54:09.440Z,28.40
2022-09-28T16:56:39.036Z,29.20
2022-09-28T16:59:13.119Z,28.80
2022-09-28T17:01:41.931Z,27.00
2022-09-28T17:04:12.315Z,29.60
2022-09-28T17:06:41.471Z,26.00
2022-09-28T17:09:13.604Z,28.00
2022-09-28T17:11:42.797Z,29.60
2022-09-28T17:14:12.133Z,30.20
2022-09-28T17:17:06.718Z,28.80
2022-09-28T17:19:24.824Z,32.60
2022-09-28T17:21:54.444Z,33.00
2022-09-28T17:24:23.418Z,30.80
2022-09-28T17:26:54.108Z,30.20
2022-09-28T17:29:23.884Z,31.80
2022-09-28T17:31:53.153Z,31.00
2022-09-28T17:34:22.569Z,31.00
2022-09-28T17:36:51.615Z,33.00
2022-09-28T17:39:21.461Z,32.25
2022-09-28T17:41:50.730Z,32.40
2022-09-28T17:44:20.593Z,31.20
2022-09-28T17:46:51.392Z,31.00
2022-09-28T17:49:20.462Z,34.00
2022-09-28T17:51:50.590Z,36.50
2022-09-28T17:54:21.349Z,40.00
2022-09-28T17:56:50.388Z,37.75
2022-09-28T17:59:20.155Z,32.75
2022-09-28T18:01:49.171Z,37.00
2022-09-28T18:04:47.230Z,37.00
2022-09-28T18:06:49.217Z,37.00
2022-09-28T18:09:19.820Z,36.00
2022-09-28T18:11:50.715Z,33.50
2022-09-28T18:14:19.730Z,29.50
2022-09-28T18:16:49.634Z,36.25
2022-09-28T18:19:18.562Z,36.25
2022-09-28T18:21:48.406Z,34.25
2022-09-28T18:24:17.520Z,37.00
2022-09-28T18:26:46.479Z,33.50
2022-09-28T18:29:15.529Z,38.50
2022-09-28T18:31:44.523Z,39.50
2022-09-28T18:34:13.957Z,39.75
2022-09-28T18:36:43.572Z,36.25
2022-09-28T18:39:12.712Z,35.00
2022-09-28T18:41:42.722Z,36.50
2022-09-28T18:44:11.941Z,36.50
2022-09-28T18:46:42.837Z,33.00
2022-09-28T18:49:11.808Z,32.25
2022-09-28T18:51:40.910Z,34.50
2022-09-28T18:54:10.036Z,35.50
2022-09-28T18:56:39.210Z,35.00
2022-09-28T18:59:12.142Z,32.75
2022-09-28T19:01:42.125Z,33.50
2022-09-28T19:04:13.637Z,32.75
2022-09-28T19:06:44.897Z,35.00
2022-09-28T19:09:13.931Z,37.75
2022-09-28T19:11:42.997Z,38.25
2022-09-28T19:14:14.141Z,35.25
2022-09-28T19:16:44.621Z,34.50
2022-09-28T19:19:16.062Z,32.75
2022-09-28T19:21:45.693Z,32.75
2022-09-28T19:24:19.806Z,32.25
2022-09-28T19:26:49.804Z,32.00
2022-09-28T19:29:18.865Z,35.25
2022-09-28T19:31:48.176Z,33.50
2022-09-28T19:34:17.729Z,35.00
2022-09-28T19:36:46.896Z,32.00
2022-09-28T19:39:16.544Z,32.00
2022-09-28T19:41:48.162Z,35.00
2022-09-28T19:44:25.552Z,28.00
2022-09-28T19:46:58.243Z,35.00
2022-09-28T19:49:30.558Z,31.75
2022-09-28T19:52:16.042Z,29.00
2022-09-28T19:54:36.343Z,32.50
2022-09-28T19:57:05.033Z,26.50
2022-09-28T19:59:34.037Z,31.75
2022-09-28T20:02:03.658Z,38.00
2022-09-28T20:04:32.751Z,34.00
2022-09-28T20:07:01.985Z,34.00
2022-09-28T20:09:30.909Z,34.00
2022-09-28T20:11:59.916Z,29.00
2022-09-28T20:14:33.037Z,34.00
2022-09-28T20:16:59.553Z,30.75
2022-09-28T20:19:28.510Z,30.75
2022-09-28T20:21:59.148Z,29.00
2022-09-28T20:24:29.216Z,27.75
2022-09-28T20:26:58.456Z,28.25
2022-09-28T20:29:27.448Z,32.25
2022-09-28T20:31:56.909Z,35.00
2022-09-28T20:34:25.965Z,32.00
2022-09-28T20:36:55.006Z,32.75
2022-09-28T20:39:24.049Z,31.25
2022-09-28T20:41:54.982Z,30.25
2022-09-28T20:44:23.977Z,26.00
2022-09-28T20:46:53.553Z,29.00
2022-09-28T20:49:22.719Z,26.50
2022-09-28T20:51:51.828Z,30.00
2022-09-28T20:54:22.697Z,29.50
2022-09-28T20:56:51.712Z,23.50
2022-09-28T20:59:22.303Z,32.25
2022-09-28T21:01:51.577Z,31.50
2022-09-28T21:04:20.855Z,31.00
2022-09-28T21:06:49.887Z,29.75
2022-09-28T21:09:18.994Z,29.00
2022-09-28T21:11:48.738Z,30.50
2022-09-28T21:14:17.749Z,26.75
2022-09-28T21:16:46.686Z,25.50
2022-09-28T21:19:15.660Z,19.25
2022-09-28T21:21:44.858Z,27.25
2022-09-28T21:24:13.984Z,18.25
2022-09-28T21:26:42.983Z,25.25
2022-09-28T21:29:16.329Z,20.50
2022-09-28T21:31:47.184Z,24.50
2022-09-28T21:34:21.082Z,23.75
2022-09-28T21:36:54.908Z,23.50
2022-09-28T21:39:23.983Z,24.25
2022-09-28T21:41:53.502Z,21.00
2022-09-28T21:44:22.521Z,30.00
2022-09-28T21:46:51.468Z,25.00
2022-09-28T21:49:20.529Z,22.25
2022-09-28T21:51:49.656Z,25.00
2022-09-28T21:54:18.653Z,25.50
2022-09-28T21:56:47.835Z,25.25
2022-09-28T21:59:16.878Z,27.00
2022-09-28T22:01:46.498Z,21.75
2022-09-28T22:04:15.444Z,25.25
2022-09-28T22:06:44.404Z,24.25
2022-09-28T22:09:13.364Z,19.00
2022-09-28T22:11:42.371Z,20.00
2022-09-28T22:14:11.742Z,22.00
2022-09-28T22:16:41.469Z,21.50
2022-09-28T22:19:10.540Z,21.25
2022-09-28T22:21:40.071Z,22.00
2022-09-28T22:24:09.401Z,22.50
2022-09-28T22:26:40.476Z,19.80
2022-09-28T22:29:11.431Z,20.00
2022-09-28T22:31:42.059Z,22.00
2022-09-28T22:34:11.466Z,24.50
2022-09-28T22:36:40.485Z,24.50
2022-09-28T22:39:09.423Z,25.00
2022-09-28T22:41:38.376Z,25.50
2022-09-28T22:44:07.339Z,28.00
2022-09-28T22:46:36.495Z,24.75
2022-09-28T22:49:05.651Z,24.25
2022-09-28T22:51:34.629Z,25.75
2022-09-28T22:54:03.699Z,26.00
2022-09-28T22:56:33.090Z,25.00
2022-09-28T22:59:02.082Z,18.25
2022-09-28T23:01:32.187Z,24.25
2022-09-28T23:04:01.854Z,23.00
2022-09-28T23:06:31.268Z,19.00
2022-09-28T23:09:00.753Z,22.75
2022-09-28T23:11:30.547Z,20.60
2022-09-28T23:14:00.744Z,21.25
2022-09-28T23:16:30.486Z,22.80
2022-09-28T23:18:59.498Z,18.80
2022-09-28T23:21:29.442Z,18.25
2022-09-28T23:24:04.190Z,18.00
2022-09-28T23:26:35.946Z,20.75
2022-09-28T23:29:05.035Z,18.80
2022-09-28T23:31:34.933Z,18.50
2022-09-28T23:34:06.619Z,18.80
2022-09-28T23:36:36.360Z,21.20
2022-09-28T23:39:05.730Z,21.00
2022-09-28T23:41:34.811Z,18.25
2022-09-28T23:44:04.043Z,18.60
2022-09-28T23:46:33.122Z,18.20
2022-09-28T23:49:02.143Z,17.00
2022-09-28T23:51:31.727Z,20.00
2022-09-28T23:54:02.392Z,20.50
2022-09-28T23:56:31.395Z,17.00
2022-09-28T23:59:00.440Z,16.20
